createdAt,value
2017-10-13T00:00:42.824Z,8.38
2017-10-13T00:02:04.386Z,8.41
2017-10-13T00:03:26.277Z,8.41
2017-10-13T00:04:47.560Z,8.36
2017-10-13T00:06:10.244Z,8.4
2017-10-13T00:07:32.425Z,8.36
2017-10-13T00:08:54.652Z,8.37
2017-10-13T00:10:17.205Z,8.43
2017-10-13T00:11:39.787Z,8.38
2017-10-13T00:13:02.011Z,8.34
2017-10-13T00:14:23.974Z,8.38
2017-10-13T00:15:46.305Z,8.34
2017-10-13T00:17:08.877Z,8.38
2017-10-13T00:18:30.782Z,8.47
2017-10-13T00:19:52.667Z,8.47
2017-10-13T00:21:15.227Z,8.48
2017-10-13T00:22:36.785Z,8.56
2017-10-13T00:23:59.020Z,8.5
2017-10-13T00:25:20.934Z,8.52
2017-10-13T00:26:43.514Z,8.53
2017-10-13T00:28:05.395Z,8.58
2017-10-13T00:29:27.296Z,8.63
2017-10-13T00:30:49.628Z,8.71
2017-10-13T00:32:11.531Z,8.73
2017-10-13T00:33:34.193Z,8.73
2017-10-13T00:34:56.751Z,8.8
2017-10-13T00:36:18.322Z,8.94
2017-10-13T00:37:40.584Z,8.99
2017-10-13T00:39:02.472Z,9.05
2017-10-13T00:40:24.907Z,9.1
2017-10-13T00:41:47.460Z,9.17
2017-10-13T00:43:09.681Z,9.13
2017-10-13T00:44:32.227Z,9.11
2017-10-13T00:45:54.905Z,9.13
2017-10-13T00:47:16.806Z,9.18
2017-10-13T00:48:39.393Z,9.15
2017-10-13T00:50:01.618Z,9.14
2017-10-13T00:51:23.845Z,9.17
2017-10-13T00:52:46.064Z,9.13
2017-10-13T00:54:08.735Z,9.18
2017-10-13T00:55:30.632Z,9.21
2017-10-13T00:56:52.196Z,9.17
2017-10-13T00:58:14.428Z,9.29
2017-10-13T00:59:36.335Z,9.23
2017-10-13T01:00:58.295Z,9.17
2017-10-13T01:02:20.251Z,9.32
2017-10-13T01:03:42.133Z,9.33
2017-10-13T01:05:03.365Z,9.32
2017-10-13T01:06:25.686Z,9.4
2017-10-13T01:07:47.241Z,9.47
2017-10-13T01:09:09.464Z,9.53
2017-10-13T01:10:31.345Z,9.48
2017-10-13T01:11:52.545Z,9.57
2017-10-13T01:13:15.056Z,9.53
2017-10-13T01:14:36.962Z,9.56
2017-10-13T01:15:58.884Z,9.58
2017-10-13T01:17:21.017Z,9.56
2017-10-13T01:18:42.895Z,9.58
2017-10-13T01:20:05.149Z,9.57
2017-10-13T01:21:27.374Z,9.6
2017-10-13T01:22:49.264Z,9.6
2017-10-13T01:24:11.745Z,9.69
2017-10-13T01:25:34.322Z,9.66
2017-10-13T01:26:56.243Z,9.69
2017-10-13T01:28:18.465Z,9.68
2017-10-13T01:29:40.695Z,9.66
2017-10-13T01:31:03.275Z,9.68
2017-10-13T01:32:25.176Z,9.74
2017-10-13T01:33:47.855Z,9.72
2017-10-13T01:35:10.120Z,9.86
2017-10-13T01:36:32.384Z,9.9
2017-10-13T01:37:54.265Z,9.89
2017-10-13T01:39:16.294Z,9.97
2017-10-13T01:40:38.896Z,10.01
2017-10-13T01:42:00.846Z,9.99
2017-10-13T01:43:22.756Z,10.04
2017-10-13T01:44:44.970Z,9.97
2017-10-13T01:46:07.216Z,10.08
2017-10-13T01:47:29.095Z,10.08
2017-10-13T01:48:51.374Z,9.94
2017-10-13T01:50:13.594Z,10.08
2017-10-13T01:51:36.105Z,10.12
2017-10-13T01:52:58.476Z,10.15
2017-10-13T01:54:20.718Z,10.15
2017-10-13T01:55:42.944Z,10.36
2017-10-13T01:57:04.867Z,10.38
2017-10-13T01:58:26.734Z,10.41
2017-10-13T01:59:48.950Z,10.47
2017-10-13T02:01:10.495Z,10.4
2017-10-13T02:02:33.065Z,10.33
2017-10-13T02:03:54.602Z,10.4
2017-10-13T02:05:16.835Z,10.32
2017-10-13T02:06:39.395Z,10.25
2017-10-13T02:08:00.812Z,10.09
2017-10-13T02:09:22.364Z,10.12
2017-10-13T02:10:44.919Z,10.04
2017-10-13T02:12:07.152Z,9.93
2017-10-13T02:13:29.374Z,9.86
2017-10-13T02:14:51.623Z,9.79
2017-10-13T02:16:13.176Z,9.74
2017-10-13T02:17:35.070Z,9.64
2017-10-13T02:18:57.061Z,9.69
2017-10-13T02:20:19.373Z,9.61
2017-10-13T02:21:41.255Z,9.56
2017-10-13T02:23:03.494Z,9.6
2017-10-13T02:24:25.742Z,9.54
2017-10-13T02:25:48.393Z,9.46
2017-10-13T02:27:10.274Z,9.43
2017-10-13T02:28:32.824Z,9.39
2017-10-13T02:29:54.401Z,9.39
2017-10-13T02:31:16.621Z,9.39
2017-10-13T02:32:38.503Z,9.38
2017-10-13T02:34:00.065Z,9.4
2017-10-13T02:35:22.396Z,9.4
2017-10-13T02:36:44.636Z,9.42
2017-10-13T02:38:06.535Z,9.38
2017-10-13T02:39:28.795Z,9.24
2017-10-13T02:40:50.668Z,9.31
2017-10-13T02:42:12.937Z,9.29
2017-10-13T02:43:34.485Z,9.4
2017-10-13T02:44:56.714Z,9.48
2017-10-13T02:46:17.941Z,9.43
2017-10-13T02:47:39.835Z,9.42
2017-10-13T02:49:02.075Z,9.46
2017-10-13T02:50:24.633Z,9.46
2017-10-13T02:51:46.534Z,9.4
2017-10-13T02:53:08.086Z,9.54
2017-10-13T02:54:30.304Z,9.47
2017-10-13T02:55:51.863Z,9.5
2017-10-13T02:57:14.084Z,9.51
2017-10-13T02:58:36.326Z,9.6
2017-10-13T02:59:58.214Z,9.56
2017-10-13T03:01:20.445Z,9.61
2017-10-13T03:02:42.928Z,9.58
2017-10-13T03:04:04.564Z,9.6
2017-10-13T03:05:26.973Z,9.58
2017-10-13T03:06:48.884Z,9.64
2017-10-13T03:08:11.145Z,9.65
2017-10-13T03:09:33.383Z,9.65
2017-10-13T03:10:54.935Z,9.69
2017-10-13T03:12:16.587Z,9.71
2017-10-13T03:13:39.193Z,9.74
2017-10-13T03:15:01.085Z,9.66
2017-10-13T03:16:23.753Z,9.71
2017-10-13T03:17:45.955Z,9.69
2017-10-13T03:19:08.179Z,9.66
2017-10-13T03:20:29.795Z,9.68
2017-10-13T03:21:51.332Z,9.61
2017-10-13T03:23:12.884Z,9.57
2017-10-13T03:24:35.444Z,9.6
2017-10-13T03:25:56.645Z,9.6
2017-10-13T03:27:19.214Z,9.58
2017-10-13T03:28:40.862Z,9.58
2017-10-13T03:30:02.816Z,9.56
2017-10-13T03:31:24.807Z,9.56
2017-10-13T03:32:46.704Z,9.58
2017-10-13T03:34:08.952Z,9.56
2017-10-13T03:35:30.851Z,9.48
2017-10-13T03:36:52.419Z,9.48
2017-10-13T03:38:14.326Z,9.47
2017-10-13T03:39:36.214Z,9.39
2017-10-13T03:40:58.118Z,9.42
2017-10-13T03:42:20.355Z,9.47
2017-10-13T03:43:42.243Z,9.4
2017-10-13T03:45:03.454Z,9.29
2017-10-13T03:46:25.684Z,9.39
2017-10-13T03:47:47.574Z,9.31
2017-10-13T03:49:09.800Z,9.33
2017-10-13T03:50:32.017Z,9.28
2017-10-13T03:51:53.565Z,9.26
2017-10-13T03:53:15.834Z,9.28
2017-10-13T03:54:37.722Z,9.26
2017-10-13T03:55:59.961Z,9.13
2017-10-13T03:57:22.219Z,9.23
2017-10-13T03:58:44.772Z,9.15
2017-10-13T04:00:06.654Z,9.18
2017-10-13T04:01:28.904Z,9.13
2017-10-13T04:02:51.771Z,9.13
2017-10-13T04:04:14.355Z,9.08
2017-10-13T04:05:36.224Z,9.08
2017-10-13T04:06:58.143Z,9.17
2017-10-13T04:08:20.383Z,9.18
2017-10-13T04:09:42.274Z,9.17
2017-10-13T04:11:04.180Z,9.13
2017-10-13T04:12:26.734Z,9.04
2017-10-13T04:13:48.283Z,9.13
2017-10-13T04:15:10.277Z,9.05
2017-10-13T04:16:32.499Z,9.11
2017-10-13T04:17:54.705Z,9.15
2017-10-13T04:19:16.923Z,9.13
2017-10-13T04:20:38.483Z,9.2
2017-10-13T04:22:00.464Z,9.17
2017-10-13T04:23:22.343Z,9.17
2017-10-13T04:24:44.204Z,9.29
2017-10-13T04:26:06.105Z,9.2
2017-10-13T04:27:27.993Z,9.17
2017-10-13T04:28:49.545Z,9.24
2017-10-13T04:30:12.144Z,9.14
2017-10-13T04:31:34.033Z,9.26
2017-10-13T04:32:55.939Z,9.21
2017-10-13T04:34:18.195Z,9.2
2017-10-13T04:35:40.754Z,9.29
2017-10-13T04:37:02.743Z,9.33
2017-10-13T04:38:24.956Z,9.26
2017-10-13T04:39:47.194Z,9.38
2017-10-13T04:41:09.420Z,9.33
2017-10-13T04:42:31.078Z,9.31
2017-10-13T04:43:53.294Z,9.24
2017-10-13T04:45:15.184Z,9.35
2017-10-13T04:46:37.056Z,9.38
2017-10-13T04:47:59.294Z,9.48
2017-10-13T04:49:21.172Z,9.42
2017-10-13T04:50:43.382Z,9.47
2017-10-13T04:52:04.932Z,9.51
2017-10-13T04:53:26.831Z,9.53
2017-10-13T04:54:48.734Z,9.57
2017-10-13T04:56:10.939Z,9.57
2017-10-13T04:57:33.610Z,9.58
2017-10-13T04:58:55.871Z,9.54
2017-10-13T05:00:16.762Z,9.6
2017-10-13T05:01:38.640Z,9.71
2017-10-13T05:03:00.610Z,9.65
2017-10-13T05:04:22.490Z,9.74
2017-10-13T05:05:45.064Z,9.78
2017-10-13T05:07:06.307Z,9.89
2017-10-13T05:08:28.514Z,9.86
2017-10-13T05:09:51.118Z,9.91
2017-10-13T05:11:12.614Z,9.84
2017-10-13T05:12:34.126Z,9.84
2017-10-13T05:13:56.625Z,9.86
2017-10-13T05:15:18.187Z,9.87
2017-10-13T05:16:40.354Z,9.96
2017-10-13T05:18:02.885Z,9.99
2017-10-13T05:19:25.083Z,10.11
2017-10-13T05:20:47.722Z,10.09
2017-10-13T05:22:08.967Z,10.14
2017-10-13T05:23:30.831Z,10.18
2017-10-13T05:24:53.628Z,10.18
2017-10-13T05:26:15.821Z,10.33
2017-10-13T05:27:38.005Z,10.34
2017-10-13T05:29:00.244Z,10.38
2017-10-13T05:30:22.753Z,10.41
2017-10-13T05:31:45.244Z,10.4
2017-10-13T05:33:07.421Z,10.38
2017-10-13T05:34:29.277Z,10.47
2017-10-13T05:35:51.471Z,10.45
2017-10-13T05:37:13.645Z,10.48
2017-10-13T05:38:35.814Z,10.51
2017-10-13T05:39:58.333Z,10.44
2017-10-13T05:41:20.286Z,10.53
2017-10-13T05:42:41.815Z,10.44
2017-10-13T05:44:03.995Z,10.53
2017-10-13T05:45:26.176Z,10.55
2017-10-13T05:46:48.352Z,10.52
2017-10-13T05:48:10.527Z,10.53
2017-10-13T05:49:32.383Z,10.53
2017-10-13T05:50:54.226Z,10.51
2017-10-13T05:52:16.721Z,10.45
2017-10-13T05:53:38.584Z,10.53
2017-10-13T05:55:00.746Z,10.59
2017-10-13T05:56:22.244Z,10.55
2017-10-13T05:57:44.585Z,10.64
2017-10-13T05:59:06.788Z,10.66
2017-10-13T06:00:28.658Z,10.66
2017-10-13T06:01:50.145Z,10.68
2017-10-13T06:03:12.615Z,10.78
2017-10-13T06:04:34.474Z,10.74
2017-10-13T06:05:56.666Z,10.74
2017-10-13T06:07:18.878Z,10.91
2017-10-13T06:08:41.536Z,10.81
2017-10-13T06:10:03.379Z,10.89
2017-10-13T06:11:25.224Z,10.96
2017-10-13T06:12:47.505Z,10.96
2017-10-13T06:14:09.825Z,10.99
2017-10-13T06:15:31.697Z,11.07
2017-10-13T06:16:53.210Z,11.03
2017-10-13T06:18:15.399Z,11.14
2017-10-13T06:19:37.941Z,11.1
2017-10-13T06:20:59.794Z,11.09
2017-10-13T06:22:21.627Z,11.15
2017-10-13T06:23:42.903Z,11.17
2017-10-13T06:25:05.483Z,11.19
2017-10-13T06:26:28.062Z,11.24
2017-10-13T06:27:50.274Z,11.28
2017-10-13T06:29:12.280Z,11.29
2017-10-13T06:30:34.841Z,11.29
2017-10-13T06:31:57.358Z,11.32
2017-10-13T06:33:19.579Z,11.37
2017-10-13T06:34:41.522Z,11.37
2017-10-13T06:36:04.039Z,11.43
2017-10-13T06:37:26.675Z,11.39
2017-10-13T06:38:48.505Z,11.44
2017-10-13T06:40:10.684Z,11.46
2017-10-13T06:41:32.515Z,11.54
2017-10-13T06:42:54.351Z,11.61
2017-10-13T06:44:16.522Z,11.64
2017-10-13T06:45:38.359Z,11.62
2017-10-13T06:46:59.564Z,11.69
2017-10-13T06:48:21.404Z,11.76
2017-10-13T06:49:42.925Z,11.78
2017-10-13T06:51:05.144Z,11.78
2017-10-13T06:52:26.317Z,11.88
2017-10-13T06:53:48.514Z,11.98
2017-10-13T06:55:10.365Z,11.98
2017-10-13T06:56:32.226Z,12.14
2017-10-13T06:57:54.645Z,12.05
2017-10-13T06:59:16.164Z,12.1
2017-10-13T07:00:38.354Z,12.29
2017-10-13T07:02:00.986Z,12.34
2017-10-13T07:03:23.181Z,12.29
2017-10-13T07:04:45.035Z,12.38
2017-10-13T07:06:07.248Z,12.39
2017-10-13T07:07:29.112Z,12.46
2017-10-13T07:08:51.309Z,12.52
2017-10-13T07:10:13.569Z,12.6
2017-10-13T07:11:35.172Z,12.62
2017-10-13T07:12:57.110Z,12.75
2017-10-13T07:14:19.636Z,12.67
2017-10-13T07:15:41.805Z,12.77
2017-10-13T07:17:04.587Z,12.83
2017-10-13T07:18:26.115Z,12.89
2017-10-13T07:19:48.426Z,12.93
2017-10-13T07:21:10.628Z,13
2017-10-13T07:22:32.815Z,13.01
2017-10-13T07:23:55.112Z,13.07
2017-10-13T07:25:17.643Z,13.1
2017-10-13T07:26:40.223Z,13.25
2017-10-13T07:28:01.769Z,13.29
2017-10-13T07:29:23.978Z,13.26
2017-10-13T07:30:46.153Z,13.42
2017-10-13T07:32:08.495Z,13.42
2017-10-13T07:33:31.040Z,13.6
2017-10-13T07:34:52.893Z,13.64
2017-10-13T07:36:14.735Z,13.78
2017-10-13T07:37:37.257Z,13.87
2017-10-13T07:38:59.520Z,13.87
2017-10-13T07:40:21.748Z,14.02
2017-10-13T07:41:43.946Z,14.03
2017-10-13T07:43:06.167Z,14.03
2017-10-13T07:44:28.062Z,14.1
2017-10-13T07:45:50.733Z,14.12
2017-10-13T07:47:12.903Z,14.18
2017-10-13T07:48:34.432Z,14.17
2017-10-13T07:49:56.981Z,14.18
2017-10-13T07:51:19.148Z,14.24
2017-10-13T07:52:41.443Z,14.24
2017-10-13T07:54:03.633Z,14.37
2017-10-13T07:55:25.816Z,14.51
2017-10-13T07:56:48.334Z,14.58
2017-10-13T07:58:10.524Z,14.64
2017-10-13T07:59:32.028Z,14.64
2017-10-13T08:00:53.872Z,14.78
2017-10-13T08:02:16.066Z,14.84
2017-10-13T08:03:38.594Z,14.86
2017-10-13T08:05:00.777Z,14.91
2017-10-13T08:06:22.347Z,14.99
2017-10-13T08:07:44.714Z,15.09
2017-10-13T08:09:06.482Z,15.16
2017-10-13T08:10:28.673Z,15.02
2017-10-13T08:11:50.874Z,15.07
2017-10-13T08:13:13.169Z,15.19
2017-10-13T08:14:34.999Z,15.23
2017-10-13T08:15:56.868Z,15.34
2017-10-13T08:17:18.723Z,15.34
2017-10-13T08:18:40.974Z,15.35
2017-10-13T08:20:03.513Z,15.43
2017-10-13T08:21:26.091Z,15.43
2017-10-13T08:22:46.933Z,15.44
2017-10-13T08:24:09.434Z,15.43
2017-10-13T08:25:31.271Z,15.47
2017-10-13T08:26:53.208Z,15.56
2017-10-13T08:28:15.397Z,15.65
2017-10-13T08:29:37.625Z,15.68
2017-10-13T08:30:59.483Z,15.74
2017-10-13T08:32:22.036Z,15.72
2017-10-13T08:33:44.280Z,15.72
2017-10-13T08:35:06.801Z,15.71
2017-10-13T08:36:28.654Z,15.78
2017-10-13T08:37:50.526Z,15.83
2017-10-13T08:39:13.051Z,15.92
2017-10-13T08:40:35.269Z,16.05
2017-10-13T08:41:57.507Z,16.09
2017-10-13T08:43:20.013Z,16.24
2017-10-13T08:44:42.195Z,16.27
2017-10-13T08:46:04.723Z,16.39
2017-10-13T08:47:27.055Z,16.38
2017-10-13T08:48:49.233Z,16.43
2017-10-13T08:50:11.439Z,16.41
2017-10-13T08:51:33.352Z,16.49
2017-10-13T08:52:55.333Z,16.57
2017-10-13T08:54:17.523Z,16.68
2017-10-13T08:55:39.472Z,16.85
2017-10-13T08:57:01.444Z,16.76
2017-10-13T08:58:23.641Z,16.93
2017-10-13T08:59:46.158Z,16.97
2017-10-13T09:01:08.475Z,16.97
2017-10-13T09:02:30.663Z,16.98
2017-10-13T09:03:51.894Z,16.91
2017-10-13T09:05:14.100Z,16.88
2017-10-13T09:06:36.273Z,16.89
2017-10-13T09:07:57.464Z,16.96
2017-10-13T09:09:19.674Z,16.91
2017-10-13T09:10:42.194Z,16.88
2017-10-13T09:12:04.393Z,16.81
2017-10-13T09:13:26.913Z,16.75
2017-10-13T09:14:49.093Z,16.64
2017-10-13T09:16:10.974Z,16.57
2017-10-13T09:17:33.265Z,16.53
2017-10-13T09:18:55.665Z,16.41
2017-10-13T09:20:18.214Z,16.43
2017-10-13T09:21:40.463Z,16.43
2017-10-13T09:23:03.033Z,16.35
2017-10-13T09:24:25.607Z,16.27
2017-10-13T09:25:47.785Z,16.27
2017-10-13T09:27:09.992Z,16.31
2017-10-13T09:28:32.144Z,16.34
2017-10-13T09:29:54.703Z,16.34
2017-10-13T09:31:17.186Z,16.34
2017-10-13T09:32:39.165Z,16.35
2017-10-13T09:34:01.703Z,16.39
2017-10-13T09:35:23.924Z,16.35
2017-10-13T09:36:46.076Z,16.35
2017-10-13T09:38:08.293Z,16.39
2017-10-13T09:39:30.494Z,16.43
2017-10-13T09:40:52.012Z,16.45
2017-10-13T09:42:13.873Z,16.48
2017-10-13T09:43:36.416Z,16.43
2017-10-13T09:44:58.616Z,16.45
2017-10-13T09:46:20.884Z,16.31
2017-10-13T09:47:43.148Z,16.35
2017-10-13T09:49:05.399Z,16.34
2017-10-13T09:50:27.584Z,16.35
2017-10-13T09:51:49.530Z,16.24
2017-10-13T09:53:11.116Z,16.23
2017-10-13T09:54:33.063Z,16.34
2017-10-13T09:55:55.354Z,16.41
2017-10-13T09:57:17.209Z,16.45
2017-10-13T09:58:39.514Z,16.56
2017-10-13T10:00:01.694Z,16.68
2017-10-13T10:01:23.231Z,16.79
2017-10-13T10:02:45.091Z,16.86
2017-10-13T10:04:06.955Z,16.88
2017-10-13T10:05:29.137Z,16.98
2017-10-13T10:06:51.091Z,17.14
2017-10-13T10:08:13.311Z,17.19
2017-10-13T10:09:34.846Z,17.34
2017-10-13T10:10:56.702Z,17.31
2017-10-13T10:12:19.254Z,17.51
2017-10-13T10:13:41.801Z,17.52
2017-10-13T10:15:03.389Z,17.55
2017-10-13T10:16:25.924Z,17.58
2017-10-13T10:17:48.478Z,17.56
2017-10-13T10:19:10.674Z,17.59
2017-10-13T10:20:32.855Z,17.68
2017-10-13T10:21:55.437Z,17.64
2017-10-13T10:23:17.631Z,17.74
2017-10-13T10:24:39.150Z,17.75
2017-10-13T10:26:01.646Z,17.74
2017-10-13T10:27:23.492Z,17.74
2017-10-13T10:28:45.685Z,17.82
2017-10-13T10:30:08.316Z,17.9
2017-10-13T10:31:30.525Z,18.03
2017-10-13T10:32:53.134Z,18.14
2017-10-13T10:34:15.336Z,18.25
2017-10-13T10:35:37.526Z,18.21
2017-10-13T10:36:59.784Z,18.26
2017-10-13T10:38:21.728Z,18.32
2017-10-13T10:39:43.593Z,18.45
2017-10-13T10:41:05.794Z,18.47
2017-10-13T10:42:28.323Z,18.48
2017-10-13T10:43:50.516Z,18.44
2017-10-13T10:45:12.374Z,18.37
2017-10-13T10:46:34.659Z,18.54
2017-10-13T10:47:56.562Z,18.52
2017-10-13T10:49:18.783Z,18.55
2017-10-13T10:50:40.445Z,18.72
2017-10-13T10:52:02.641Z,18.76
2017-10-13T10:53:25.265Z,18.73
2017-10-13T10:54:47.509Z,18.87
2017-10-13T10:56:10.044Z,18.88
2017-10-13T10:57:32.564Z,18.75
2017-10-13T10:58:54.744Z,18.87
2017-10-13T11:00:16.605Z,18.92
2017-10-13T11:01:39.149Z,18.88
2017-10-13T11:03:01.665Z,18.82
2017-10-13T11:04:23.625Z,18.82
2017-10-13T11:05:45.836Z,18.82
2017-10-13T11:07:07.684Z,18.66
2017-10-13T11:08:29.904Z,18.54
2017-10-13T11:09:52.556Z,18.54
2017-10-13T11:11:14.760Z,18.5
2017-10-13T11:12:37.295Z,18.57
2017-10-13T11:13:59.164Z,18.44
2017-10-13T11:15:21.681Z,18.45
2017-10-13T11:16:43.876Z,18.36
2017-10-13T11:18:06.386Z,18.48
2017-10-13T11:19:28.225Z,18.57
2017-10-13T11:20:50.413Z,18.55
2017-10-13T11:22:12.275Z,18.66
2017-10-13T11:23:34.122Z,18.75
2017-10-13T11:24:55.972Z,18.91
2017-10-13T11:26:17.834Z,19.1
2017-10-13T11:27:40.365Z,19.16
2017-10-13T11:29:02.885Z,19.28
2017-10-13T11:30:25.073Z,19.22
2017-10-13T11:31:47.596Z,19.28
2017-10-13T11:33:09.467Z,19.28
2017-10-13T11:34:31.341Z,19.36
2017-10-13T11:35:53.266Z,19.36
2017-10-13T11:37:16.242Z,19.28
2017-10-13T11:38:38.473Z,19.31
2017-10-13T11:40:00.383Z,19.19
2017-10-13T11:41:22.912Z,19.28
2017-10-13T11:42:45.205Z,19.33
2017-10-13T11:44:07.124Z,19.33
2017-10-13T11:45:29.763Z,19.32
2017-10-13T11:46:51.956Z,19.29
2017-10-13T11:48:13.824Z,19.32
2017-10-13T11:49:36.357Z,19.31
2017-10-13T11:50:58.675Z,19.1
2017-10-13T11:52:21.216Z,19.04
2017-10-13T11:53:43.767Z,19.06
2017-10-13T11:55:05.956Z,18.95
2017-10-13T11:56:28.154Z,19.02
2017-10-13T11:57:49.774Z,18.87
2017-10-13T11:59:11.304Z,19.02
2017-10-13T12:00:33.224Z,18.95
2017-10-13T12:01:55.418Z,19.14
2017-10-13T12:03:17.275Z,19.26
2017-10-13T12:04:39.485Z,19.44
2017-10-13T12:06:02.154Z,19.4
2017-10-13T12:07:24.001Z,19.58
2017-10-13T12:08:46.201Z,19.69
2017-10-13T12:10:08.438Z,19.68
2017-10-13T12:11:30.625Z,19.69
2017-10-13T12:12:52.843Z,19.8
2017-10-13T12:14:14.725Z,19.8
2017-10-13T12:15:37.225Z,19.81
2017-10-13T12:16:59.265Z,19.87
2017-10-13T12:18:21.507Z,19.95
2017-10-13T12:19:43.744Z,19.98
2017-10-13T12:21:05.636Z,19.99
2017-10-13T12:22:27.844Z,19.96
2017-10-13T12:23:50.460Z,19.98
2017-10-13T12:25:12.322Z,19.95
2017-10-13T12:26:34.526Z,19.92
2017-10-13T12:27:56.790Z,19.84
2017-10-13T12:29:19.026Z,19.73
2017-10-13T12:30:41.196Z,19.74
2017-10-13T12:32:04.045Z,19.8
2017-10-13T12:33:26.294Z,19.76
2017-10-13T12:34:48.523Z,19.68
2017-10-13T12:36:11.327Z,19.69
2017-10-13T12:37:32.985Z,19.59
2017-10-13T12:38:55.537Z,19.46
2017-10-13T12:40:17.736Z,19.46
2017-10-13T12:41:40.046Z,19.4
2017-10-13T12:43:02.284Z,19.44
2017-10-13T12:44:24.822Z,19.29
2017-10-13T12:45:46.665Z,19.29
2017-10-13T12:47:08.914Z,19.23
2017-10-13T12:48:31.445Z,19.21
2017-10-13T12:49:53.983Z,19.08
2017-10-13T12:51:16.254Z,18.99
2017-10-13T12:52:38.444Z,18.94
2017-10-13T12:54:00.326Z,18.87
2017-10-13T12:55:22.517Z,18.87
2017-10-13T12:56:44.373Z,18.85
2017-10-13T12:58:06.225Z,18.8
2017-10-13T12:59:28.885Z,18.82
2017-10-13T13:00:51.073Z,18.76
2017-10-13T13:02:12.924Z,18.69
2017-10-13T13:03:35.520Z,18.82
2017-10-13T13:04:57.361Z,18.82
2017-10-13T13:06:19.227Z,18.78
2017-10-13T13:07:41.779Z,18.94
2017-10-13T13:09:04.019Z,18.95
2017-10-13T13:10:26.771Z,18.94
2017-10-13T13:11:48.630Z,19.07
2017-10-13T13:13:10.174Z,19.08
2017-10-13T13:14:32.373Z,19.19
2017-10-13T13:15:54.889Z,19.18
2017-10-13T13:17:16.758Z,19.33
2017-10-13T13:18:39.062Z,19.44
2017-10-13T13:20:01.246Z,19.47
2017-10-13T13:21:23.823Z,19.41
2017-10-13T13:22:46.024Z,19.55
2017-10-13T13:24:07.880Z,19.51
2017-10-13T13:25:29.765Z,19.55
2017-10-13T13:26:51.967Z,19.5
2017-10-13T13:28:14.158Z,19.51
2017-10-13T13:29:36.373Z,19.47
2017-10-13T13:30:58.945Z,19.46
2017-10-13T13:32:21.141Z,19.36
2017-10-13T13:33:42.999Z,19.33
2017-10-13T13:35:05.535Z,19.36
2017-10-13T13:36:27.424Z,19.39
2017-10-13T13:37:50.017Z,19.25
2017-10-13T13:39:12.532Z,19.14
2017-10-13T13:40:34.859Z,19.1
2017-10-13T13:41:57.403Z,19.07
2017-10-13T13:43:19.945Z,18.99
2017-10-13T13:44:42.443Z,18.99
2017-10-13T13:46:04.665Z,18.91
2017-10-13T13:47:27.226Z,18.85
2017-10-13T13:48:48.924Z,18.8
2017-10-13T13:50:11.471Z,18.82
2017-10-13T13:51:33.692Z,18.82
2017-10-13T13:52:55.907Z,18.81
2017-10-13T13:54:17.755Z,18.78
2017-10-13T13:55:39.724Z,18.75
2017-10-13T13:57:02.276Z,18.72
2017-10-13T13:58:24.485Z,18.7
2017-10-13T13:59:46.680Z,18.73
2017-10-13T14:01:08.876Z,18.62
2017-10-13T14:02:31.066Z,18.65
2017-10-13T14:03:53.304Z,18.67
2017-10-13T14:05:15.167Z,18.67
2017-10-13T14:06:37.005Z,18.8
2017-10-13T14:07:59.208Z,18.8
2017-10-13T14:09:21.373Z,18.84
2017-10-13T14:10:42.904Z,18.84
2017-10-13T14:12:05.069Z,18.87
2017-10-13T14:13:26.583Z,18.88
2017-10-13T14:14:48.434Z,18.91
2017-10-13T14:16:10.682Z,18.95
2017-10-13T14:17:32.874Z,19.02
2017-10-13T14:18:55.081Z,19.04
2017-10-13T14:20:17.325Z,19.02
2017-10-13T14:21:39.520Z,19.04
2017-10-13T14:23:01.365Z,19.06
2017-10-13T14:24:23.238Z,19.07
2017-10-13T14:25:45.764Z,19.06
2017-10-13T14:27:07.992Z,19.04
2017-10-13T14:28:30.274Z,18.91
2017-10-13T14:29:52.543Z,18.99
2017-10-13T14:31:14.744Z,19.07
2017-10-13T14:32:37.379Z,18.95
2017-10-13T14:33:59.605Z,18.99
2017-10-13T14:35:21.816Z,19.02
2017-10-13T14:36:43.461Z,18.98
2017-10-13T14:38:05.661Z,18.91
2017-10-13T14:39:27.928Z,18.95
2017-10-13T14:40:50.184Z,18.92
2017-10-13T14:42:12.712Z,19.02
2017-10-13T14:43:34.923Z,18.99
2017-10-13T14:44:57.485Z,19
2017-10-13T14:46:19.673Z,18.98
2017-10-13T14:47:40.926Z,18.88
2017-10-13T14:49:02.806Z,18.81
2017-10-13T14:50:24.646Z,18.73
2017-10-13T14:51:46.554Z,18.72
2017-10-13T14:53:08.077Z,18.65
2017-10-13T14:54:30.658Z,18.66
2017-10-13T14:55:52.856Z,18.6
2017-10-13T14:57:15.063Z,18.58
2017-10-13T14:58:37.567Z,18.6
2017-10-13T14:59:59.204Z,18.52
2017-10-13T15:01:21.414Z,18.52
2017-10-13T15:02:43.284Z,18.52
2017-10-13T15:04:05.958Z,18.62
2017-10-13T15:05:28.142Z,18.52
2017-10-13T15:06:50.661Z,18.52
2017-10-13T15:08:13.197Z,18.52
2017-10-13T15:09:35.094Z,18.5
2017-10-13T15:10:56.272Z,18.45
2017-10-13T15:12:18.797Z,18.42
2017-10-13T15:13:41.395Z,18.41
2017-10-13T15:15:03.617Z,18.32
2017-10-13T15:16:25.833Z,18.32
2017-10-13T15:17:48.355Z,18.42
2017-10-13T15:19:10.874Z,18.5
2017-10-13T15:20:33.049Z,18.5
2017-10-13T15:21:54.922Z,18.51
2017-10-13T15:23:17.118Z,18.57
2017-10-13T15:24:39.633Z,18.55
2017-10-13T15:26:01.796Z,18.58
2017-10-13T15:27:24.009Z,18.57
2017-10-13T15:28:46.586Z,18.58
2017-10-13T15:30:08.464Z,18.58
2017-10-13T15:31:30.318Z,18.6
2017-10-13T15:32:52.169Z,18.62
2017-10-13T15:34:14.474Z,18.75
2017-10-13T15:35:36.670Z,18.73
2017-10-13T15:36:58.552Z,18.72
2017-10-13T15:38:20.408Z,18.73
2017-10-13T15:39:42.312Z,18.66
2017-10-13T15:41:04.563Z,18.66
2017-10-13T15:42:27.075Z,18.63
2017-10-13T15:43:49.263Z,18.55
2017-10-13T15:45:11.116Z,18.6
2017-10-13T15:46:33.324Z,18.6
2017-10-13T15:47:55.568Z,18.55
2017-10-13T15:49:17.775Z,18.57
2017-10-13T15:50:40.354Z,18.58
2017-10-13T15:52:02.905Z,18.52
2017-10-13T15:53:25.104Z,18.57
2017-10-13T15:54:47.325Z,18.57
2017-10-13T15:56:09.694Z,18.52
2017-10-13T15:57:31.421Z,18.52
2017-10-13T15:58:53.671Z,18.5
2017-10-13T16:00:15.944Z,18.41
2017-10-13T16:01:38.221Z,18.45
2017-10-13T16:03:00.776Z,18.37
2017-10-13T16:04:23.411Z,18.27
2017-10-13T16:05:46.000Z,18.27
2017-10-13T16:07:08.525Z,18.21
2017-10-13T16:08:30.884Z,18.25
2017-10-13T16:09:53.092Z,18.21
2017-10-13T16:11:15.704Z,18.27
2017-10-13T16:12:37.910Z,18.15
2017-10-13T16:13:59.815Z,18.25
2017-10-13T16:15:21.730Z,18.12
2017-10-13T16:16:43.584Z,18.18
2017-10-13T16:18:05.474Z,18.07
2017-10-13T16:19:27.377Z,18.08
2017-10-13T16:20:49.233Z,18.05
2017-10-13T16:22:11.151Z,18.05
2017-10-13T16:23:33.364Z,18.07
2017-10-13T16:24:55.558Z,18.08
2017-10-13T16:26:18.107Z,18.03
2017-10-13T16:27:39.970Z,18.03
2017-10-13T16:29:02.259Z,17.95
2017-10-13T16:30:24.145Z,17.92
2017-10-13T16:31:46.040Z,17.93
2017-10-13T16:33:08.239Z,17.9
2017-10-13T16:34:30.483Z,17.96
2017-10-13T16:35:53.045Z,17.87
2017-10-13T16:37:14.943Z,17.93
2017-10-13T16:38:36.797Z,17.9
2017-10-13T16:39:59.143Z,17.92
2017-10-13T16:41:20.694Z,17.89
2017-10-13T16:42:42.986Z,17.9
2017-10-13T16:44:05.185Z,17.9
2017-10-13T16:45:27.364Z,17.84
2017-10-13T16:46:49.618Z,17.79
2017-10-13T16:48:12.144Z,17.77
2017-10-13T16:49:34.456Z,17.87
2017-10-13T16:50:57.142Z,17.77
2017-10-13T16:52:19.653Z,17.86
2017-10-13T16:53:41.198Z,17.78
2017-10-13T16:55:03.406Z,17.81
2017-10-13T16:56:25.917Z,17.82
2017-10-13T16:57:48.164Z,17.77
2017-10-13T16:59:10.725Z,17.77
2017-10-13T17:00:32.933Z,17.78
2017-10-13T17:01:55.464Z,17.75
2017-10-13T17:03:17.771Z,17.72
2017-10-13T17:04:40.294Z,17.68
2017-10-13T17:06:02.804Z,17.71
2017-10-13T17:07:25.019Z,17.7
2017-10-13T17:08:47.232Z,17.64
2017-10-13T17:10:09.203Z,17.72
2017-10-13T17:11:31.404Z,17.58
2017-10-13T17:12:53.290Z,17.58
2017-10-13T17:14:15.512Z,17.63
2017-10-13T17:15:37.068Z,17.64
2017-10-13T17:16:59.646Z,17.7
2017-10-13T17:18:21.501Z,17.56
2017-10-13T17:19:43.710Z,17.62
2017-10-13T17:21:05.276Z,17.62
2017-10-13T17:22:27.276Z,17.64
2017-10-13T17:23:49.823Z,17.54
2017-10-13T17:25:12.106Z,17.56
2017-10-13T17:26:34.405Z,17.54
2017-10-13T17:27:56.945Z,17.71
2017-10-13T17:29:19.188Z,17.56
2017-10-13T17:30:41.424Z,17.62
2017-10-13T17:32:03.639Z,17.62
2017-10-13T17:33:26.193Z,17.66
2017-10-13T17:34:48.796Z,17.55
2017-10-13T17:36:11.266Z,17.51
2017-10-13T17:37:33.574Z,17.56
2017-10-13T17:38:56.131Z,17.55
2017-10-13T17:40:18.034Z,17.58
2017-10-13T17:41:39.936Z,17.52
2017-10-13T17:43:01.812Z,17.58
2017-10-13T17:44:24.414Z,17.54
2017-10-13T17:45:46.863Z,17.54
2017-10-13T17:47:09.414Z,17.48
2017-10-13T17:48:31.767Z,17.46
2017-10-13T17:49:53.974Z,17.43